Time;durP1;ratioP1;P1;durP2;ratioP2;P2;SDS_P1;SDS_P2;PMS_P1;PMS_P2;Temp;Humidity;BMP_temperature;BMP_pressure;BME280_temperature;BME280_humidity;BME280_pressure;Samples;Min_cycle;Max_cycle;Signal;HPM_P1;HPM_P2
2023/12/06 00:01:48;;;;;;;1999.90;999.90;;;0.90;99.90;;;;;;5088623;28;20043;-82
2023/12/06 00:04:13;;;;;;;1999.90;999.90;;;0.90;99.90;;;;;;5090482;28;20468;-83
2023/12/06 00:06:39;;;;;;;1999.90;999.90;;;0.90;99.90;;;;;;5072215;28;20085;-82
2023/12/06 00:09:05;;;;;;;1999.90;999.90;;;0.90;99.90;;;;;;5073002;28;20036;-83
2023/12/06 00:11:30;;;;;;;1999.90;999.90;;;0.90;99.90;;;;;;5069109;28;20040;-82
2023/12/06 00:13:56;;;;;;;1999.90;999.90;;;0.90;99.90;;;;;;5053909;28;20606;-83
2023/12/06 00:16:22;;;;;;;1999.90;999.90;;;0.90;99.90;;;;;;5072629;28;20480;-82
2023/12/06 00:18:49;;;;;;;1999.90;999.90;;;0.90;99.90;;;;;;5071993;28;20036;-82
2023/12/06 00:21:15;;;;;;;1999.90;999.90;;;0.90;99.90;;;;;;5054704;28;20044;-83
2023/12/06 00:23:41;;;;;;;1999.90;999.90;;;0.90;99.90;;;;;;5055384;28;20083;-83
2023/12/06 00:26:06;;;;;;;1999.90;999.90;;;0.90;99.90;;;;;;5055192;28;20118;-83
2023/12/06 00:28:32;;;;;;;1999.90;999.90;;;0.90;99.90;;;;;;5052693;28;20468;-83
2023/12/06 00:30:57;;;;;;;1999.90;999.90;;;0.90;99.90;;;;;;5067431;28;20506;-83
2023/12/06 00:33:23;;;;;;;1999.90;999.90;;;0.90;99.90;;;;;;5065705;28;20041;-83
2023/12/06 00:35:49;;;;;;;1999.90;999.90;;;1.00;99.90;;;;;;5058662;28;20075;-83
2023/12/06 00:38:15;;;;;;;1999.90;999.90;;;1.00;99.90;;;;;;5071487;28;20101;-83
2023/12/06 00:40:40;;;;;;;1999.90;999.90;;;1.00;99.90;;;;;;5063238;27;20047;-83
2023/12/06 00:43:06;;;;;;;1999.90;999.90;;;1.00;99.90;;;;;;5071056;28;20050;-83
2023/12/06 00:45:33;;;;;;;1999.90;999.90;;;0.90;99.90;;;;;;5066795;28;20043;-82
2023/12/06 00:47:58;;;;;;;1999.90;999.90;;;1.00;99.90;;;;;;5090202;28;20044;-83
2023/12/06 00:50:24;;;;;;;1999.90;999.90;;;0.90;99.90;;;;;;5076366;27;20042;-82
2023/12/06 00:52:49;;;;;;;1999.90;999.90;;;0.90;99.90;;;;;;5065107;28;20035;-82
2023/12/06 00:55:15;;;;;;;1999.90;999.90;;;0.90;99.90;;;;;;5090556;28;20042;-83
2023/12/06 00:57:41;;;;;;;1999.90;999.90;;;1.00;99.90;;;;;;5073589;28;20130;-83
2023/12/06 01:00:08;;;;;;;1999.90;999.90;;;1.00;99.90;;;;;;5090130;28;20181;-83
2023/12/06 01:02:33;;;;;;;1999.90;999.90;;;1.00;99.90;;;;;;5091726;28;20039;-82
2023/12/06 01:04:59;;;;;;;1999.90;999.90;;;1.00;99.90;;;;;;5071172;28;20039;-83
2023/12/06 01:07:25;;;;;;;1999.90;999.90;;;1.00;99.90;;;;;;5078408;28;20044;-82
2023/12/06 01:09:50;;;;;;;1999.90;999.90;;;1.00;99.90;;;;;;5072218;28;20448;-82
2023/12/06 01:12:16;;;;;;;1999.90;999.90;;;1.00;99.90;;;;;;5082984;28;20654;-83
2023/12/06 01:14:42;;;;;;;1999.90;999.90;;;1.00;99.90;;;;;;5067995;28;20044;-83
2023/12/06 01:17:07;;;;;;;1999.90;999.90;;;1.00;99.90;;;;;;5108941;28;20059;-83
2023/12/06 01:19:33;;;;;;;1999.90;999.90;;;1.00;99.90;;;;;;5105836;28;20114;-83
2023/12/06 01:21:59;;;;;;;1999.90;999.90;;;1.00;99.90;;;;;;5072954;28;20907;-82
2023/12/06 01:24:24;;;;;;;1999.90;999.90;;;1.10;99.90;;;;;;5073914;28;20039;-83
2023/12/06 01:26:50;;;;;;;1999.90;999.90;;;1.10;99.90;;;;;;5089526;28;20032;-83
2023/12/06 01:29:16;;;;;;;1999.90;999.90;;;1.10;99.90;;;;;;5073095;28;20117;-83
2023/12/06 01:31:41;;;;;;;1999.90;999.90;;;1.10;99.90;;;;;;5069297;28;20047;-83
2023/12/06 01:34:07;;;;;;;1999.90;999.90;;;1.10;99.90;;;;;;5090756;28;20498;-82
2023/12/06 01:36:34;;;;;;;1999.90;999.90;;;1.10;99.90;;;;;;5089647;28;20127;-83
2023/12/06 01:39:00;;;;;;;1999.90;999.90;;;1.10;99.90;;;;;;5080792;28;20040;-83
2023/12/06 01:41:26;;;;;;;1999.90;999.90;;;1.10;99.90;;;;;;5063323;28;20060;-82
2023/12/06 01:43:51;;;;;;;1999.90;999.90;;;1.00;99.90;;;;;;5082971;28;20048;-83
2023/12/06 01:46:17;;;;;;;1999.90;999.90;;;1.10;99.90;;;;;;5078778;28;20044;-83
2023/12/06 01:48:43;;;;;;;1999.90;999.90;;;1.10;99.90;;;;;;5085612;28;20488;-83
2023/12/06 01:51:10;;;;;;;1999.90;999.90;;;1.10;99.90;;;;;;5090765;28;20729;-82
2023/12/06 01:53:37;;;;;;;1999.90;999.90;;;1.10;99.90;;;;;;5083383;28;20047;-83
2023/12/06 01:56:04;;;;;;;1999.90;999.90;;;1.10;99.90;;;;;;5063695;28;20707;-82
2023/12/06 01:58:30;;;;;;;1999.90;999.90;;;1.10;99.90;;;;;;5084341;28;20071;-83
2023/12/06 02:00:56;;;;;;;1999.90;999.90;;;1.10;99.90;;;;;;5063893;28;20048;-83
2023/12/06 02:03:22;;;;;;;1999.90;999.90;;;1.10;99.90;;;;;;5083921;28;20422;-82
2023/12/06 02:05:49;;;;;;;1999.90;999.90;;;1.20;99.90;;;;;;5063405;28;20408;-82
2023/12/06 02:08:16;;;;;;;1999.90;999.90;;;1.10;99.90;;;;;;5086634;28;20044;-82
2023/12/06 02:10:42;;;;;;;1999.90;999.90;;;1.20;99.90;;;;;;5072647;28;20078;-82
2023/12/06 02:13:08;;;;;;;1999.90;999.90;;;1.10;99.90;;;;;;5066638;28;20072;-82
2023/12/06 02:15:34;;;;;;;1999.90;999.90;;;1.20;99.90;;;;;;5086996;28;20036;-83
2023/12/06 02:18:01;;;;;;;1999.90;999.90;;;1.20;99.90;;;;;;5070058;28;20489;-82
2023/12/06 02:20:27;;;;;;;1999.90;999.90;;;1.20;99.90;;;;;;5080543;28;20511;-82
2023/12/06 02:22:55;;;;;;;1999.90;999.90;;;1.20;99.90;;;;;;5080279;28;20492;-82
2023/12/06 02:25:20;;;;;;;1999.90;999.90;;;1.20;99.90;;;;;;5061939;28;20044;-82
2023/12/06 02:27:46;;;;;;;1999.90;999.90;;;1.20;99.90;;;;;;5077526;28;20037;-82
2023/12/06 02:30:12;;;;;;;1999.90;999.90;;;1.20;99.90;;;;;;5063209;28;20040;-82
2023/12/06 02:32:38;;;;;;;1999.90;999.90;;;1.20;99.90;;;;;;5072306;28;20406;-82
2023/12/06 02:35:23;;;;;;;1999.90;999.90;;;1.30;99.90;;;;;;5086661;28;20485;-82
2023/12/06 02:37:54;;;;;;;1999.90;999.90;;;1.30;99.90;;;;;;5070927;28;20075;-83
2023/12/06 02:40:21;;;;;;;1999.90;999.90;;;1.30;99.90;;;;;;5066939;28;20052;-82
2023/12/06 02:42:47;;;;;;;1999.90;999.90;;;1.30;99.90;;;;;;5067912;28;20040;-83
2023/12/06 02:45:13;;;;;;;1999.90;999.90;;;1.30;99.90;;;;;;5087593;28;20353;-83
2023/12/06 02:47:38;;;;;;;1999.90;999.90;;;1.30;99.90;;;;;;5085706;28;20032;-83
2023/12/06 02:50:04;;;;;;;1999.90;999.90;;;1.30;99.90;;;;;;5082952;28;20039;-82
2023/12/06 02:52:30;;;;;;;1999.90;999.90;;;1.30;99.90;;;;;;5086260;28;20176;-82
2023/12/06 02:54:56;;;;;;;1999.90;999.90;;;1.30;99.90;;;;;;5066692;28;20058;-83
2023/12/06 02:57:21;;;;;;;1999.90;999.90;;;1.30;99.90;;;;;;5086185;28;20043;-82
2023/12/06 02:59:47;;;;;;;1999.90;999.90;;;1.30;99.90;;;;;;5098236;28;20499;-83
2023/12/06 03:02:12;;;;;;;1999.90;999.90;;;1.30;99.90;;;;;;5073007;28;20081;-83
2023/12/06 03:04:38;;;;;;;1999.90;999.90;;;1.30;99.90;;;;;;5079263;28;20767;-83
2023/12/06 03:07:04;;;;;;;1999.90;999.90;;;1.30;99.90;;;;;;5091448;28;20088;-82
2023/12/06 03:09:29;;;;;;;1999.90;999.90;;;1.30;99.90;;;;;;5081126;28;20039;-82
2023/12/06 03:11:55;;;;;;;1999.90;999.90;;;1.30;99.90;;;;;;5078482;28;20119;-82
2023/12/06 03:14:20;;;;;;;1999.90;999.90;;;1.30;99.90;;;;;;5059363;28;20047;-81
2023/12/06 03:16:46;;;;;;;1999.90;999.90;;;1.30;99.90;;;;;;5090821;28;20043;-81
2023/12/06 03:19:11;;;;;;;1999.90;999.90;;;1.40;99.90;;;;;;5094663;28;20438;-81
2023/12/06 03:21:37;;;;;;;1999.90;999.90;;;1.40;99.90;;;;;;5083002;28;20373;-81
2023/12/06 03:24:03;;;;;;;1999.90;999.90;;;1.40;99.90;;;;;;5079266;28;20432;-81
2023/12/06 03:26:28;;;;;;;1999.90;999.90;;;1.40;99.90;;;;;;5092665;28;20027;-81
2023/12/06 03:28:54;;;;;;;1999.90;999.90;;;1.40;99.90;;;;;;5073391;28;20039;-82
2023/12/06 03:31:20;;;;;;;1999.90;999.90;;;1.40;99.90;;;;;;5073012;28;20051;-82
2023/12/06 03:33:45;;;;;;;1999.90;999.90;;;1.50;99.90;;;;;;5071018;28;20041;-82
2023/12/06 03:36:12;;;;;;;1999.90;999.90;;;1.50;99.90;;;;;;5075616;28;20403;-82
2023/12/06 03:38:39;;;;;;;1999.90;999.90;;;1.50;99.90;;;;;;5067861;28;20044;-82
2023/12/06 03:41:04;;;;;;;1999.90;999.90;;;1.40;99.90;;;;;;5061921;28;20070;-82
2023/12/06 03:43:30;;;;;;;1999.90;999.90;;;1.40;99.90;;;;;;5070412;28;20093;-84
2023/12/06 03:45:56;;;;;;;1999.90;999.90;;;1.40;99.90;;;;;;5069293;28;20028;-84
2023/12/06 03:48:21;;;;;;;1999.90;999.90;;;1.40;99.90;;;;;;5077814;28;20090;-84
2023/12/06 03:50:47;;;;;;;1999.90;999.90;;;1.40;99.90;;;;;;5072704;28;20035;-84
2023/12/06 03:53:12;;;;;;;1999.90;999.90;;;1.40;99.90;;;;;;5089022;28;20036;-83
2023/12/06 03:55:38;;;;;;;1999.90;999.90;;;1.40;99.90;;;;;;5062522;28;20032;-83
2023/12/06 03:58:05;;;;;;;1999.90;999.90;;;1.40;99.90;;;;;;5080244;28;20500;-83
2023/12/06 04:00:30;;;;;;;1999.90;999.90;;;1.40;99.90;;;;;;5085056;28;20051;-83
2023/12/06 04:02:56;;;;;;;1999.90;999.90;;;1.40;99.90;;;;;;5089207;28;20404;-83
2023/12/06 04:05:23;;;;;;;1999.90;999.90;;;1.40;99.90;;;;;;5091181;28;20040;-83
2023/12/06 04:07:48;;;;;;;1999.90;999.90;;;1.40;99.90;;;;;;5090654;28;20088;-82
2023/12/06 04:10:14;;;;;;;1999.90;999.90;;;1.40;99.90;;;;;;5082456;28;20434;-82
2023/12/06 04:12:40;;;;;;;1999.90;999.90;;;1.40;99.90;;;;;;5088042;28;20510;-82
2023/12/06 04:15:06;;;;;;;1999.90;999.90;;;1.40;99.90;;;;;;5064696;28;20147;-83
2023/12/06 04:17:32;;;;;;;1999.90;999.90;;;1.50;99.90;;;;;;5067734;28;20443;-83
2023/12/06 04:19:57;;;;;;;1999.90;999.90;;;1.50;99.90;;;;;;5089960;28;20048;-83
2023/12/06 04:22:23;;;;;;;1999.90;999.90;;;1.50;99.90;;;;;;5071592;28;20040;-83
2023/12/06 04:24:48;;;;;;;1999.90;999.90;;;1.50;99.90;;;;;;5088033;28;20031;-83
2023/12/06 04:27:14;;;;;;;1999.90;999.90;;;1.40;99.90;;;;;;5072232;28;20043;-83
2023/12/06 04:29:40;;;;;;;1999.90;999.90;;;1.50;99.90;;;;;;5067759;28;20130;-83
2023/12/06 04:32:06;;;;;;;1999.90;999.90;;;1.50;99.90;;;;;;5080216;28;20091;-83
2023/12/06 04:34:33;;;;;;;1999.90;999.90;;;1.50;99.90;;;;;;5086708;28;20495;-83
2023/12/06 04:36:58;;;;;;;1999.90;999.90;;;1.50;99.90;;;;;;5072378;28;20047;-83
2023/12/06 04:39:24;;;;;;;1999.90;999.90;;;1.50;99.90;;;;;;5086975;28;20044;-83
2023/12/06 04:41:50;;;;;;;1999.90;999.90;;;1.50;99.90;;;;;;5080719;28;20424;-83
2023/12/06 04:44:15;;;;;;;1999.90;999.90;;;1.50;99.90;;;;;;5066297;28;20123;-83
2023/12/06 04:46:41;;;;;;;1999.90;999.90;;;1.60;99.90;;;;;;5077880;28;20044;-83
2023/12/06 04:49:07;;;;;;;1999.90;999.90;;;1.60;99.90;;;;;;5088390;28;20032;-83
2023/12/06 04:51:32;;;;;;;1999.90;999.90;;;1.60;99.90;;;;;;5089170;28;20040;-83
2023/12/06 04:53:58;;;;;;;1999.90;999.90;;;1.60;99.90;;;;;;5069825;28;20036;-83
2023/12/06 04:56:23;;;;;;;1999.90;999.90;;;1.60;99.90;;;;;;5087952;28;20059;-83
2023/12/06 04:58:49;;;;;;;1999.90;999.90;;;1.60;99.90;;;;;;5064798;28;20059;-83
2023/12/06 05:01:15;;;;;;;1999.90;999.90;;;1.60;99.90;;;;;;5087842;28;20061;-83
2023/12/06 05:03:41;;;;;;;1999.90;999.90;;;1.60;99.90;;;;;;5084680;28;20081;-83
2023/12/06 05:06:06;;;;;;;1999.90;999.90;;;1.60;99.90;;;;;;5086807;28;20067;-83
2023/12/06 05:08:32;;;;;;;1999.90;999.90;;;1.60;99.90;;;;;;5067021;28;20487;-83
2023/12/06 05:10:58;;;;;;;1999.90;999.90;;;1.60;99.90;;;;;;5065684;28;20036;-83
2023/12/06 05:13:23;;;;;;;1999.90;999.90;;;1.60;99.90;;;;;;5080134;28;20539;-83
2023/12/06 05:15:49;;;;;;;1999.90;999.90;;;1.60;99.90;;;;;;5085774;28;20039;-83
2023/12/06 05:18:14;;;;;;;1999.90;999.90;;;1.60;99.90;;;;;;5092425;28;20040;-83
2023/12/06 05:20:40;;;;;;;1999.90;999.90;;;1.60;99.90;;;;;;5086590;28;20484;-83
2023/12/06 05:23:05;;;;;;;1999.90;999.90;;;1.60;99.90;;;;;;5070537;28;20043;-83
2023/12/06 05:25:32;;;;;;;1999.90;999.90;;;1.60;99.90;;;;;;5079263;28;20046;-83
2023/12/06 05:27:58;;;;;;;1999.90;999.90;;;1.60;99.90;;;;;;5088687;28;20036;-83
2023/12/06 05:30:24;;;;;;;1999.90;999.90;;;1.60;99.90;;;;;;5088938;28;20036;-83
2023/12/06 05:32:50;;;;;;;1999.90;999.90;;;1.60;99.90;;;;;;5068678;28;20453;-82
2023/12/06 05:35:16;;;;;;;1999.90;999.90;;;1.70;99.90;;;;;;5086848;28;20040;-83
2023/12/06 05:37:41;;;;;;;1999.90;999.90;;;1.70;99.90;;;;;;5082859;28;20106;-82
2023/12/06 05:40:07;;;;;;;1999.90;999.90;;;1.70;99.90;;;;;;5070084;28;20040;-82
2023/12/06 05:42:33;;;;;;;1999.90;999.90;;;1.80;99.90;;;;;;5089370;28;20051;-83
2023/12/06 05:44:58;;;;;;;1999.90;999.90;;;1.70;99.90;;;;;;5070364;28;20040;-83
2023/12/06 05:47:25;;;;;;;1999.90;999.90;;;1.70;99.90;;;;;;5071029;28;20040;-83
2023/12/06 05:49:51;;;;;;;1999.90;999.90;;;1.80;99.90;;;;;;5073306;28;20031;-83
2023/12/06 05:52:16;;;;;;;1999.90;999.90;;;1.80;99.90;;;;;;5073814;28;20050;-83
2023/12/06 05:54:42;;;;;;;1999.90;999.90;;;1.80;99.90;;;;;;5108385;28;20040;-83
2023/12/06 05:57:08;;;;;;;1999.90;999.90;;;1.80;99.90;;;;;;5069989;28;20090;-83
2023/12/06 05:59:33;;;;;;;1999.90;999.90;;;1.80;99.90;;;;;;5068193;28;20040;-83
2023/12/06 06:01:59;;;;;;;1999.90;999.90;;;1.80;99.90;;;;;;5088960;28;20051;-83
2023/12/06 06:04:26;;;;;;;1999.90;999.90;;;1.80;99.90;;;;;;5085724;28;20069;-83
2023/12/06 06:06:51;;;;;;;1999.90;999.90;;;1.80;99.90;;;;;;5095059;28;20071;-83
2023/12/06 06:09:17;;;;;;;1999.90;999.90;;;1.80;99.90;;;;;;5089428;28;20522;-83
2023/12/06 06:11:43;;;;;;;1999.90;999.90;;;1.80;99.90;;;;;;5087652;28;20498;-83
2023/12/06 06:14:09;;;;;;;1999.90;999.90;;;1.80;99.90;;;;;;5089576;28;20132;-83
2023/12/06 06:16:35;;;;;;;1999.90;999.90;;;1.90;99.90;;;;;;5094160;28;20475;-83
2023/12/06 06:19:00;;;;;;;1999.90;999.90;;;1.90;99.90;;;;;;5068021;28;20041;-83
2023/12/06 06:21:26;;;;;;;1999.90;999.90;;;1.90;99.90;;;;;;5087342;28;20039;-83
2023/12/06 06:23:52;;;;;;;1999.90;999.90;;;1.90;99.90;;;;;;5067001;28;20138;-83
2023/12/06 06:26:17;;;;;;;1999.90;999.90;;;2.00;99.90;;;;;;5089674;28;20168;-83
2023/12/06 06:28:43;;;;;;;1999.90;999.90;;;2.00;99.90;;;;;;5098539;28;20036;-83
2023/12/06 06:31:09;;;;;;;1999.90;999.90;;;2.00;99.90;;;;;;5069425;28;20436;-83
2023/12/06 06:33:35;;;;;;;1999.90;999.90;;;2.00;99.90;;;;;;5092039;28;20043;-83
2023/12/06 06:36:01;;;;;;;1999.90;999.90;;;2.00;99.90;;;;;;5088616;27;20498;-83
2023/12/06 06:38:26;;;;;;;1999.90;999.90;;;2.00;99.90;;;;;;5086468;28;20043;-83
2023/12/06 06:40:52;;;;;;;1999.90;999.90;;;2.00;99.90;;;;;;5097482;28;20067;-83
2023/12/06 06:43:18;;;;;;;1999.90;999.90;;;2.10;99.90;;;;;;5072927;28;20051;-83
2023/12/06 06:45:44;;;;;;;1999.90;999.90;;;2.10;99.90;;;;;;5066408;28;20130;-83
2023/12/06 06:48:09;;;;;;;1999.90;999.90;;;2.10;99.90;;;;;;5109862;27;20126;-83
2023/12/06 06:50:35;;;;;;;1999.90;999.90;;;2.10;99.90;;;;;;5086441;28;20480;-83
2023/12/06 06:53:01;;;;;;;1999.90;999.90;;;2.00;99.90;;;;;;5071159;28;20046;-83
2023/12/06 06:55:27;;;;;;;1999.90;999.90;;;2.00;99.90;;;;;;5068924;28;20039;-83
2023/12/06 06:57:53;;;;;;;1999.90;999.90;;;2.10;99.90;;;;;;5095747;28;20044;-82
2023/12/06 07:00:20;;;;;;;1999.90;999.90;;;2.00;99.90;;;;;;5082834;28;20520;-82
2023/12/06 07:02:47;;;;;;;1999.90;999.90;;;2.10;99.90;;;;;;5081125;28;20044;-82
2023/12/06 07:05:13;;;;;;;1999.90;999.90;;;2.10;99.90;;;;;;5109034;28;20664;-82
2023/12/06 07:07:42;;;;;;;1999.90;999.90;;;2.10;99.90;;;;;;5079416;28;20042;-82
2023/12/06 07:10:09;;;;;;;1999.90;999.90;;;2.00;99.90;;;;;;5091262;28;20036;-82
2023/12/06 07:12:36;;;;;;;1999.90;999.90;;;2.00;99.90;;;;;;5111605;28;20046;-82
2023/12/06 07:15:02;;;;;;;1999.90;999.90;;;2.10;99.90;;;;;;5073993;28;20306;-82
2023/12/06 07:17:29;;;;;;;1999.90;999.90;;;2.00;99.90;;;;;;5072016;28;20050;-82
2023/12/06 07:19:55;;;;;;;1999.90;999.90;;;2.00;99.90;;;;;;5081829;28;20047;-82
2023/12/06 07:22:22;;;;;;;1999.90;999.90;;;2.10;99.90;;;;;;5070412;28;20430;-82
2023/12/06 07:24:48;;;;;;;1999.90;999.90;;;2.10;99.90;;;;;;5086073;28;20044;-82
2023/12/06 07:27:14;;;;;;;1999.90;999.90;;;2.10;99.90;;;;;;5073542;28;20047;-82
2023/12/06 07:29:41;;;;;;;1999.90;999.90;;;2.10;99.90;;;;;;5092110;28;20036;-82
2023/12/06 07:32:07;;;;;;;1999.90;999.90;;;2.10;99.90;;;;;;5082320;28;20434;-82
2023/12/06 07:34:33;;;;;;;1999.90;999.90;;;2.20;99.90;;;;;;5071150;28;20039;-82
2023/12/06 07:36:58;;;;;;;1999.90;999.90;;;2.10;99.90;;;;;;5071728;28;20043;-82
2023/12/06 07:39:24;;;;;;;1999.90;999.90;;;2.10;99.90;;;;;;5092812;28;20047;-82
2023/12/06 07:41:50;;;;;;;1999.90;999.90;;;2.10;99.90;;;;;;5063887;28;20056;-81
2023/12/06 07:44:17;;;;;;;1999.90;999.90;;;2.20;99.90;;;;;;5089485;28;20031;-82
2023/12/06 07:46:44;;;;;;;1999.90;999.90;;;2.20;99.90;;;;;;5072073;28;20039;-81
2023/12/06 07:49:09;;;;;;;1999.90;999.90;;;2.20;99.90;;;;;;5085767;28;20047;-81
2023/12/06 07:51:36;;;;;;;1999.90;999.90;;;2.20;99.90;;;;;;5066056;28;20731;-81
2023/12/06 07:54:02;;;;;;;1999.90;999.90;;;2.20;99.90;;;;;;5069557;28;20036;-82
2023/12/06 07:56:27;;;;;;;1999.90;999.90;;;2.20;99.90;;;;;;5086510;28;20039;-82
2023/12/06 07:58:57;;;;;;;1999.90;999.90;;;2.30;99.90;;;;;;5071904;28;20039;-82
2023/12/06 08:01:24;;;;;;;1999.90;999.90;;;2.20;99.90;;;;;;5067122;28;20051;-82
2023/12/06 08:03:49;;;;;;;1999.90;999.90;;;2.30;99.90;;;;;;5068150;28;20051;-81
2023/12/06 08:06:16;;;;;;;1999.90;999.90;;;2.30;99.90;;;;;;5091479;28;20040;-82
2023/12/06 08:08:42;;;;;;;1999.90;999.90;;;2.30;99.90;;;;;;5074266;28;20127;-81
2023/12/06 08:11:08;;;;;;;1999.90;999.90;;;2.30;99.90;;;;;;5087029;28;20172;-81
2023/12/06 08:13:33;;;;;;;1999.90;999.90;;;2.30;99.90;;;;;;5090819;28;20044;-81
2023/12/06 08:15:59;;;;;;;1999.90;999.90;;;2.30;99.90;;;;;;5090625;28;20618;-82
2023/12/06 08:18:24;;;;;;;1999.90;999.90;;;2.40;99.90;;;;;;5069905;28;20491;-81
2023/12/06 08:20:50;;;;;;;1999.90;999.90;;;2.40;99.90;;;;;;5072445;28;20043;-81
2023/12/06 08:23:16;;;;;;;1999.90;999.90;;;2.40;99.90;;;;;;5079564;28;20503;-81
2023/12/06 08:25:41;;;;;;;1999.90;999.90;;;2.40;99.90;;;;;;5104964;28;20032;-81
2023/12/06 08:28:07;;;;;;;1999.90;999.90;;;2.40;99.90;;;;;;5069342;28;20613;-81
2023/12/06 08:30:32;;;;;;;1999.90;999.90;;;2.40;99.90;;;;;;5068833;28;20111;-81
2023/12/06 08:32:58;;;;;;;1999.90;999.90;;;2.40;99.90;;;;;;5083637;28;20035;-81
2023/12/06 08:35:24;;;;;;;1999.90;999.90;;;2.40;99.90;;;;;;5110164;27;20040;-81
2023/12/06 08:37:49;;;;;;;1999.90;999.90;;;2.30;99.90;;;;;;5083807;28;20043;-81
2023/12/06 08:40:15;;;;;;;1999.90;999.90;;;2.40;99.90;;;;;;5060869;28;20059;-80
2023/12/06 08:42:41;;;;;;;1999.90;999.90;;;2.40;99.90;;;;;;5085392;28;20040;-81
2023/12/06 08:45:08;;;;;;;1999.90;999.90;;;2.40;99.90;;;;;;5102211;28;20085;-81
2023/12/06 08:47:34;;;;;;;1999.90;999.90;;;2.40;99.90;;;;;;5090871;28;20031;-80
2023/12/06 08:49:59;;;;;;;1999.90;999.90;;;2.40;99.90;;;;;;5109809;28;20055;-81
2023/12/06 08:52:25;;;;;;;1999.90;999.90;;;2.40;99.90;;;;;;5069496;28;20071;-81
2023/12/06 08:54:51;;;;;;;1999.90;999.90;;;2.40;99.90;;;;;;5086747;28;20124;-80
2023/12/06 08:57:16;;;;;;;1999.90;999.90;;;2.50;99.90;;;;;;5088442;28;20126;-80
2023/12/06 08:59:42;;;;;;;1999.90;999.90;;;2.50;99.90;;;;;;5082511;28;20134;-81
2023/12/06 09:02:08;;;;;;;1999.90;999.90;;;2.50;99.90;;;;;;5060902;28;20080;-81
2023/12/06 09:04:34;;;;;;;1999.90;999.90;;;2.50;99.90;;;;;;5090175;28;20040;-81
2023/12/06 09:06:59;;;;;;;1999.90;999.90;;;2.60;99.90;;;;;;5088875;28;20411;-81
2023/12/06 09:09:25;;;;;;;1999.90;999.90;;;2.60;99.90;;;;;;5099010;28;20059;-80
2023/12/06 09:11:51;;;;;;;1999.90;999.90;;;2.60;99.90;;;;;;5080774;28;21473;-80
2023/12/06 09:14:16;;;;;;;1999.90;999.90;;;2.70;99.90;;;;;;5079098;28;20036;-80
2023/12/06 09:16:42;;;;;;;1999.90;999.90;;;2.70;99.90;;;;;;5067737;28;20032;-80
2023/12/06 09:19:08;;;;;;;1999.90;999.90;;;2.70;99.90;;;;;;5107035;28;20063;-80
2023/12/06 09:21:43;;;;;;;1999.90;999.90;;;2.80;99.90;;;;;;5064933;28;20123;-80
2023/12/06 09:24:10;;;;;;;1999.90;999.90;;;2.70;99.90;;;;;;5061680;28;20043;-80
2023/12/06 09:26:40;;;;;;;1999.90;999.90;;;2.80;99.90;;;;;;5079113;28;20437;-81
2023/12/06 09:29:10;;;;;;;1999.90;999.90;;;2.80;99.90;;;;;;5066451;28;20039;-81
2023/12/06 09:31:37;;;;;;;1999.90;999.90;;;2.90;99.90;;;;;;5070226;28;20039;-80
2023/12/06 09:34:04;;;;;;;1999.90;999.90;;;2.80;99.90;;;;;;5080598;28;20047;-80
2023/12/06 09:36:31;;;;;;;1999.90;999.90;;;2.80;99.90;;;;;;5067613;28;20039;-81
2023/12/06 09:38:58;;;;;;;1999.90;999.90;;;2.90;99.90;;;;;;5071417;28;20031;-81
2023/12/06 09:41:30;;;;;;;1999.90;999.90;;;2.90;99.90;;;;;;5084521;28;20083;-81
2023/12/06 09:43:58;;;;;;;1999.90;999.90;;;2.90;99.90;;;;;;5069639;27;20058;-80
2023/12/06 09:46:24;;;;;;;1999.90;999.90;;;2.90;99.90;;;;;;5064606;28;20032;-81
2023/12/06 09:48:50;;;;;;;1999.90;999.90;;;3.00;99.90;;;;;;5085962;28;20035;-80
2023/12/06 09:51:18;;;;;;;1999.90;999.90;;;3.00;99.90;;;;;;5071508;28;20155;-81
2023/12/06 09:53:44;;;;;;;1999.90;999.90;;;3.00;99.90;;;;;;5068528;28;20232;-81
2023/12/06 09:56:10;;;;;;;1999.90;999.90;;;3.10;99.90;;;;;;5072277;28;20412;-81
2023/12/06 09:58:36;;;;;;;1999.90;999.90;;;3.10;99.90;;;;;;5087756;28;20093;-81
2023/12/06 10:01:03;;;;;;;1999.90;999.90;;;3.10;99.90;;;;;;5086933;28;20157;-81
2023/12/06 10:03:29;;;;;;;1999.90;999.90;;;3.20;99.90;;;;;;5071630;28;20074;-81
2023/12/06 10:05:57;;;;;;;1999.90;999.90;;;3.20;99.90;;;;;;5088103;28;20082;-81
2023/12/06 10:08:23;;;;;;;1999.90;999.90;;;3.10;99.90;;;;;;5077136;28;20072;-81
2023/12/06 10:10:59;;;;;;;1999.90;999.90;;;3.20;99.90;;;;;;5066014;28;20077;-81
2023/12/06 10:13:32;;;;;;;1999.90;999.90;;;3.10;99.90;;;;;;5075350;28;20035;-81
2023/12/06 10:15:59;;;;;;;1999.90;999.90;;;3.10;99.90;;;;;;5068493;28;20491;-81
2023/12/06 10:18:25;;;;;;;1999.90;999.90;;;3.20;99.90;;;;;;5086334;28;20499;-81
2023/12/06 10:20:51;;;;;;;1999.90;999.90;;;3.10;99.90;;;;;;5072508;28;20050;-81
2023/12/06 10:23:17;;;;;;;1999.90;999.90;;;3.20;99.90;;;;;;5105570;28;20039;-81
2023/12/06 10:25:47;;;;;;;1999.90;999.90;;;3.10;99.90;;;;;;5082996;28;20426;-81
2023/12/06 10:28:14;;;;;;;1999.90;999.90;;;3.10;99.90;;;;;;5066929;28;20044;-81
2023/12/06 10:30:39;;;;;;;1999.90;999.90;;;3.10;99.90;;;;;;5070442;28;20487;-81
2023/12/06 10:33:06;;;;;;;1999.90;999.90;;;3.10;99.90;;;;;;5089708;28;20047;-81
2023/12/06 10:35:35;;;;;;;1999.90;999.90;;;3.10;99.90;;;;;;5068335;28;20044;-81
2023/12/06 10:38:03;;;;;;;1999.90;999.90;;;3.20;99.90;;;;;;5085259;28;20101;-81
2023/12/06 10:40:29;;;;;;;1999.90;999.90;;;3.20;99.90;;;;;;5080715;28;20054;-81
2023/12/06 10:43:04;;;;;;;1999.90;999.90;;;3.20;99.90;;;;;;5071899;28;20142;-81
2023/12/06 10:45:32;;;;;;;1999.90;999.90;;;3.20;99.90;;;;;;5064000;28;20048;-81
2023/12/06 10:47:59;;;;;;;1999.90;999.90;;;3.20;99.90;;;;;;5062098;28;20036;-81
2023/12/06 10:50:25;;;;;;;1999.90;999.90;;;3.30;99.90;;;;;;5080288;28;20078;-81
2023/12/06 10:52:52;;;;;;;1999.90;999.90;;;3.30;99.90;;;;;;5076765;28;20674;-81
2023/12/06 10:55:20;;;;;;;1999.90;999.90;;;3.30;99.90;;;;;;5086501;28;20043;-81
2023/12/06 10:57:46;;;;;;;1999.90;999.90;;;3.40;99.90;;;;;;5086217;28;20035;-82
2023/12/06 11:00:14;;;;;;;1999.90;999.90;;;3.40;99.90;;;;;;5067571;28;20052;-81
2023/12/06 11:02:39;;;;;;;1999.90;999.90;;;3.40;99.90;;;;;;5102427;28;20055;-81
2023/12/06 11:05:08;;;;;;;1999.90;999.90;;;3.40;99.90;;;;;;5099159;28;20039;-81
2023/12/06 11:07:52;;;;;;;1999.90;999.90;;;3.40;99.90;;;;;;5070042;28;20404;-81
2023/12/06 11:10:21;;;;;;;;;;;3.40;99.90;;;;;;5087897;28;20054;-81
2023/12/06 11:13:05;;;;;;;1999.90;999.90;;;3.40;99.90;;;;;;5081904;28;19927;-81
2023/12/06 11:15:55;;;;;;;1999.90;999.90;;;3.40;99.90;;;;;;5075347;28;20140;-81
2023/12/06 11:18:26;;;;;;;1999.90;999.90;;;3.40;99.90;;;;;;5039785;28;20047;-82
2023/12/06 11:20:52;;;;;;;1999.90;999.90;;;3.40;99.90;;;;;;5090356;28;20405;-81
2023/12/06 11:23:21;;;;;;;1999.90;999.90;;;3.50;99.90;;;;;;5078229;28;20487;-81
2023/12/06 11:25:49;;;;;;;1999.90;999.90;;;3.50;99.90;;;;;;5056478;28;23055;-81
2023/12/06 11:28:18;;;;;;;1999.90;999.90;;;3.50;99.90;;;;;;5092681;28;20044;-81
2023/12/06 11:30:46;;;;;;;1999.90;999.90;;;3.50;99.90;;;;;;5079631;28;20040;-82
2023/12/06 11:33:12;;;;;;;1999.90;999.90;;;3.50;99.90;;;;;;5069443;28;20052;-81
2023/12/06 11:35:51;;;;;;;1999.90;999.90;;;3.50;99.90;;;;;;5078307;28;20093;-81
2023/12/06 11:38:17;;;;;;;1999.90;999.90;;;3.50;99.90;;;;;;5062705;28;20039;-81
2023/12/06 11:40:51;;;;;;;1999.90;999.90;;;3.50;99.90;;;;;;5080173;28;20048;-81
2023/12/06 11:43:19;;;;;;;1999.90;999.90;;;3.50;99.90;;;;;;5078270;28;20059;-81
2023/12/06 11:45:46;;;;;;;1999.90;999.90;;;3.60;99.90;;;;;;5083363;28;20111;-81
2023/12/06 11:48:15;;;;;;;1999.90;999.90;;;3.60;99.90;;;;;;5061601;28;20090;-81
2023/12/06 11:50:44;;;;;;;1999.90;999.90;;;3.60;99.90;;;;;;5084005;28;20032;-81
2023/12/06 11:53:10;;;;;;;1999.90;999.90;;;3.60;99.90;;;;;;5060016;28;20040;-81
2023/12/06 11:55:36;;;;;;;1999.90;999.90;;;3.60;99.90;;;;;;5066736;28;20043;-81
2023/12/06 11:58:07;;;;;;;1999.90;999.90;;;3.60;99.90;;;;;;5076602;28;20311;-81
2023/12/06 12:00:34;;;;;;;1999.90;999.90;;;3.60;99.90;;;;;;5094393;28;20047;-81
2023/12/06 12:03:02;;;;;;;1999.90;999.90;;;3.60;99.90;;;;;;5055948;28;20040;-81
2023/12/06 12:05:33;;;;;;;1999.90;999.90;;;3.60;99.90;;;;;;5060339;28;20578;-81